Aérodrome :
LOGIN :

S'inscrire | Disclaimer

   EN    FR    IT 

 










Légende :    VFR   VFR Marginal   IFR   IFR Intensif   IFR Très Intensif
Visi : 
Plafond : 
>= 8 km
>= 3000ft
5 à 8 km
1000 à 3000 ft
1500m à 5 km
500 à 1000 ft
800 à 1500m
200 à 500 ft
< 800m
< 200 ft
Symboles :   Orages  Brouillard  Fortes neiges  Fortes précipitations  Vent > 20 kt
SIGMETs :   Divers  Orages  Givrage  Turbulence  Onde Orograph.  Cendres Volcan.







- Altitude de l'aérodrome : 12 ft
- Code IATA : NCE
- Voir les cartes d'approche


LFMN - Nice

DERNIER METAR :
  • 221800Z 32005KT CAVOK 10/06 Q1011 NOSIG

METARs EXPIRÉS :
  • 221730Z 33004KT 290V360 CAVOK 10/06 Q1011 NOSIG
  • 221700Z VRB02KT 9999 FEW030 SCT260 12/06 Q1012 NOSIG
  • 221630Z 14002KT 9999 FEW030 SCT260 13/06 Q1012 NOSIG
  • 221600Z 17003KT CAVOK 13/06 Q1012 NOSIG
  • 221530Z 17003KT 9999 FEW016 SCT260 13/06 Q1013 NOSIG

TAF TAF LFMN
Valide du 22 à 15h jusqu'au 23 à 21h UTC


221400Z 2215/2321 VRB05KT CAVOK
PROB40
TEMPO 2216/2221 BKN014
PROB30
TEMPO 2223/2304 4000 BR
ATIS : +33 4 93 17 21 16
Pas de NOTAMs connus pour ce terrain.
6 SIGMETs publiés pour la FIR Marseille (LFMM) :
 
Onde orographique forte
LFMM SIGMET 18 VALID 221800/222100 LFPW
LFMM MARSEILLE FIR/UIR SEV MTW FCST WI N4545 E00700 - N4400 E00700 - N4330 E00645 - N4415 E00530 - N4545 E00700 SFC/FL220 STNR NC=
Onde orographique forte
LFMM SIGMET 17 VALID 221800/222100 LFPW
LFMM MARSEILLE FIR/UIR SEV MTW FCST WI N4215 E00230 - N4330 E00245 - N4500 E00415 - N4430 E00515 - N4215 E00230 SFC/FL280 STNR NC=
Turbulence forte
LFMM SIGMET 16 VALID 221800/222100 LFPW
LFMM MARSEILLE FIR/UIR SEV TURB FCST WI N4500 E00700 - N4400 E00700 - N4315 E00945 - N4115 E00945 - N4115 E00800 - N4015 E00800 - N4315 E00515 - N4500 E00700 SFC/FL080 STNR NC=
Turbulence forte
LFMM SIGMET 15 VALID 221800/222100 LFPW
LFMM MARSEILLE FIR/UIR SEV TURB FCST WI N4200 E00430 - N4215 E00230 - N4545 E00300 - N4545 E00400 - N4215 E00530 - N4200 E00430 SFC/FL080 STNR NC=
Turbulence forte
LFMM SIGMET 13 VALID 221500/221800 LFPW
LFMM MARSEILLE FIR/UIR SEV TURB FCST WI N4615 E00700 - N4400 E00700 - N4315 E00630 - N4330 E00530 - N4615 E00700 SFC/FL120 STNR NC=
Turbulence forte
LFMM SIGMET 12 VALID 221500/221800 LFPW
LFMM MARSEILLE FIR/UIR SEV TURB FCST WI N4100 E00430 - N4200 E00430 - N4215 E00230 - N4630 E00300 - N4545 E00430 - N4100 E00745 - N4015 E00630 - N4100 E00430 SFC/FL080 STNR NC=



MET'MAP, la Météo Aéronautique d'un coup d'oeil ! - Copyright ORBIFLY Décembre 2007 - Disclaimer

ORBIFLY MET'MAP TEAM :

Programmation & Développement : Alexandra Zaïnal
Conception & Développement : Baudouin d'Aumeries
Co-Programmation & Développement : Marc-Olivier Méhu
Soutien technique & logistique : Manuel Goepfert

Contact : metmap@orbifly.com




SOURCES & CREDITS :

   NOAA